sensor_id;sensor_type;location;lat;lon;timestamp;pressure;altitude;pressure_sealevel;temperature;humidity
63903;BME280;50072;50.678;13.938;2022-11-15T00:00:20;99750.31;;;3.45;100.00
63903;BME280;50072;50.678;13.938;2022-11-15T00:03:03;99751.06;;;3.27;100.00
63903;BME280;50072;50.678;13.938;2022-11-15T00:05:29;99744.03;;;3.28;100.00
63903;BME280;50072;50.678;13.938;2022-11-15T00:07:56;99753.78;;;3.37;100.00
63903;BME280;50072;50.678;13.938;2022-11-15T00:10:23;99749.38;;;3.36;100.00
63903;BME280;50072;50.678;13.938;2022-11-15T00:12:52;99748.53;;;3.46;100.00
63903;BME280;50072;50.678;13.938;2022-11-15T00:15:17;99743.31;;;3.55;100.00
63903;BME280;50072;50.678;13.938;2022-11-15T00:17:43;99744.25;;;3.73;100.00
63903;BME280;50072;50.678;13.938;2022-11-15T00:20:10;99739.00;;;3.91;100.00
63903;BME280;50072;50.678;13.938;2022-11-15T00:22:37;99723.13;;;3.93;100.00
63903;BME280;50072;50.678;13.938;2022-11-15T00:25:04;99737.28;;;3.96;100.00
63903;BME280;50072;50.678;13.938;2022-11-15T00:27:30;99729.34;;;4.10;99.94
63903;BME280;50072;50.678;13.938;2022-11-15T00:29:57;99730.25;;;4.20;99.43
63903;BME280;50072;50.678;13.938;2022-11-15T00:32:24;99732.91;;;4.14;98.94
63903;BME280;50072;50.678;13.938;2022-11-15T00:34:51;99737.28;;;3.93;99.27
63903;BME280;50072;50.678;13.938;2022-11-15T00:37:17;99738.16;;;4.03;100.00
63903;BME280;50072;50.678;13.938;2022-11-15T00:39:45;99744.34;;;4.01;100.00
63903;BME280;50072;50.678;13.938;2022-11-15T00:42:11;99737.31;;;4.13;100.00
63903;BME280;50072;50.678;13.938;2022-11-15T00:44:37;99744.41;;;4.24;99.91
63903;BME280;50072;50.678;13.938;2022-11-15T00:47:03;99738.22;;;4.32;100.00
63903;BME280;50072;50.678;13.938;2022-11-15T00:49:29;99747.09;;;4.55;99.92
63903;BME280;50072;50.678;13.938;2022-11-15T00:51:57;99747.97;;;4.52;100.00
63903;BME280;50072;50.678;13.938;2022-11-15T00:54:23;99742.66;;;4.61;100.00
63903;BME280;50072;50.678;13.938;2022-11-15T00:56:55;99736.47;;;4.65;99.48
63903;BME280;50072;50.678;13.938;2022-11-15T00:59:23;99740.00;;;4.63;100.00
63903;BME280;50072;50.678;13.938;2022-11-15T01:01:53;99730.28;;;4.68;100.00
63903;BME280;50072;50.678;13.938;2022-11-15T01:04:24;99741.78;;;4.75;100.00
63903;BME280;50072;50.678;13.938;2022-11-15T01:06:53;99736.47;;;4.86;100.00
63903;BME280;50072;50.678;13.938;2022-11-15T01:09:25;99730.25;;;4.94;99.63
63903;BME280;50072;50.678;13.938;2022-11-15T01:11:53;99728.50;;;4.87;100.00
63903;BME280;50072;50.678;13.938;2022-11-15T01:14:23;99732.06;;;4.89;100.00
63903;BME280;50072;50.678;13.938;2022-11-15T01:16:54;99730.28;;;4.88;100.00
63903;BME280;50072;50.678;13.938;2022-11-15T01:19:23;99722.31;;;5.04;100.00
63903;BME280;50072;50.678;13.938;2022-11-15T01:22:06;99726.72;;;4.98;100.00
63903;BME280;50072;50.678;13.938;2022-11-15T01:24:49;99735.56;;;5.16;99.54
63903;BME280;50072;50.678;13.938;2022-11-15T01:27:17;99734.66;;;5.12;100.00
63903;BME280;50072;50.678;13.938;2022-11-15T01:29:49;99727.59;;;5.17;100.00
63903;BME280;50072;50.678;13.938;2022-11-15T01:32:18;99721.41;;;5.14;99.26
63903;BME280;50072;50.678;13.938;2022-11-15T01:34:49;99723.19;;;5.15;99.22
63903;BME280;50072;50.678;13.938;2022-11-15T01:37:17;99724.94;;;5.11;98.51
63903;BME280;50072;50.678;13.938;2022-11-15T01:39:47;99709.06;;;4.94;99.01
63903;BME280;50072;50.678;13.938;2022-11-15T01:42:13;99717.91;;;4.96;99.12
63903;BME280;50072;50.678;13.938;2022-11-15T01:44:52;99709.94;;;4.89;99.71
63903;BME280;50072;50.678;13.938;2022-11-15T01:48:14;99706.41;;;4.94;100.00
63903;BME280;50072;50.678;13.938;2022-11-15T01:50:47;99701.09;;;4.91;99.96
63903;BME280;50072;50.678;13.938;2022-11-15T01:53:19;99706.44;;;4.71;100.00
63903;BME280;50072;50.678;13.938;2022-11-15T01:55:47;99706.44;;;4.73;100.00
63903;BME280;50072;50.678;13.938;2022-11-15T01:58:19;99710.84;;;4.86;100.00
63903;BME280;50072;50.678;13.938;2022-11-15T02:00:48;99703.78;;;4.87;100.00
63903;BME280;50072;50.678;13.938;2022-11-15T02:03:17;99691.41;;;4.93;100.00
63903;BME280;50072;50.678;13.938;2022-11-15T02:05:45;99686.94;;;5.00;100.00
63903;BME280;50072;50.678;13.938;2022-11-15T02:08:17;99692.25;;;5.03;100.00
63903;BME280;50072;50.678;13.938;2022-11-15T02:10:47;99690.44;;;5.19;99.82
63903;BME280;50072;50.678;13.938;2022-11-15T02:13:18;99685.13;;;5.24;99.69
63903;BME280;50072;50.678;13.938;2022-11-15T02:16:02;99678.03;;;5.23;99.97
63903;BME280;50072;50.678;13.938;2022-11-15T02:18:39;99680.63;;;5.43;99.52
63903;BME280;50072;50.678;13.938;2022-11-15T02:21:32;99670.00;;;5.49;99.03
63903;BME280;50072;50.678;13.938;2022-11-15T02:32:42;99662.94;;;5.35;99.57
63903;BME280;50072;50.678;13.938;2022-11-15T02:38:53;99658.63;;;5.11;100.00
63903;BME280;50072;50.678;13.938;2022-11-15T02:41:49;99654.22;;;5.06;100.00
63903;BME280;50072;50.678;13.938;2022-11-15T02:44:32;99640.91;;;5.18;100.00
63903;BME280;50072;50.678;13.938;2022-11-15T02:47:11;99639.91;;;5.44;100.00
63903;BME280;50072;50.678;13.938;2022-11-15T02:49:48;99639.03;;;5.46;100.00
63903;BME280;50072;50.678;13.938;2022-11-15T02:52:19;99634.63;;;5.44;100.00
63903;BME280;50072;50.678;13.938;2022-11-15T03:06:33;99627.44;;;5.61;100.00
63903;BME280;50072;50.678;13.938;2022-11-15T03:11:59;99614.97;;;5.73;100.00
63903;BME280;50072;50.678;13.938;2022-11-15T03:14:42;99610.50;;;5.82;100.00
63903;BME280;50072;50.678;13.938;2022-11-15T03:17:27;99612.25;;;5.85;100.00
63903;BME280;50072;50.678;13.938;2022-11-15T03:20:06;99612.19;;;5.91;100.00
63903;BME280;50072;50.678;13.938;2022-11-15T03:22:48;99606.03;;;5.91;100.00
63903;BME280;50072;50.678;13.938;2022-11-15T03:25:20;99604.28;;;5.85;100.00
63903;BME280;50072;50.678;13.938;2022-11-15T03:27:51;99602.59;;;5.73;100.00
63903;BME280;50072;50.678;13.938;2022-11-15T03:30:19;99601.59;;;5.88;100.00
63903;BME280;50072;50.678;13.938;2022-11-15T03:32:55;99607.06;;;5.66;100.00
63903;BME280;50072;50.678;13.938;2022-11-15T03:35:25;99593.72;;;5.76;100.00
63903;BME280;50072;50.678;13.938;2022-11-15T03:37:59;99598.06;;;5.87;100.00
63903;BME280;50072;50.678;13.938;2022-11-15T03:40:51;99598.97;;;5.85;100.00
63903;BME280;50072;50.678;13.938;2022-11-15T03:43:52;99598.09;;;5.86;100.00
63903;BME280;50072;50.678;13.938;2022-11-15T03:46:58;99602.50;;;5.87;100.00
63903;BME280;50072;50.678;13.938;2022-11-15T03:49:51;99599.84;;;5.90;100.00
63903;BME280;50072;50.678;13.938;2022-11-15T03:52:20;99598.94;;;5.97;100.00
63903;BME280;50072;50.678;13.938;2022-11-15T03:54:55;99604.31;;;5.83;100.00
63903;BME280;50072;50.678;13.938;2022-11-15T03:57:23;99608.69;;;5.91;100.00
63903;BME280;50072;50.678;13.938;2022-11-15T03:59:54;99605.16;;;5.90;100.00
63903;BME280;50072;50.678;13.938;2022-11-15T04:02:24;99605.97;;;5.95;100.00
63903;BME280;50072;50.678;13.938;2022-11-15T04:04:53;99604.19;;;6.03;100.00
63903;BME280;50072;50.678;13.938;2022-11-15T04:07:23;99598.81;;;6.10;100.00
63903;BME280;50072;50.678;13.938;2022-11-15T04:09:54;99604.19;;;6.03;100.00
63903;BME280;50072;50.678;13.938;2022-11-15T04:12:37;99605.00;;;6.12;100.00
63903;BME280;50072;50.678;13.938;2022-11-15T04:15:21;99604.19;;;6.03;100.00
63903;BME280;50072;50.678;13.938;2022-11-15T04:17:52;99600.59;;;6.11;100.00
63903;BME280;50072;50.678;13.938;2022-11-15T04:20:26;99599.69;;;6.12;100.00
63903;BME280;50072;50.678;13.938;2022-11-15T04:23:22;99608.50;;;6.15;100.00
63903;BME280;50072;50.678;13.938;2022-11-15T04:26:14;99606.69;;;6.24;100.00
63903;BME280;50072;50.678;13.938;2022-11-15T04:28:47;99599.56;;;6.24;100.00
63903;BME280;50072;50.678;13.938;2022-11-15T04:31:44;99598.63;;;6.31;100.00
63903;BME280;50072;50.678;13.938;2022-11-15T04:34:17;99599.50;;;6.33;100.00
63903;BME280;50072;50.678;13.938;2022-11-15T04:36:50;99603.00;;;6.37;100.00
63903;BME280;50072;50.678;13.938;2022-11-15T04:39:40;99587.88;;;6.44;100.00
63903;BME280;50072;50.678;13.938;2022-11-15T04:42:06;99590.59;;;6.41;100.00
63903;BME280;50072;50.678;13.938;2022-11-15T04:44:39;99595.91;;;6.41;100.00
63903;BME280;50072;50.678;13.938;2022-11-15T04:47:10;99588.81;;;6.39;100.00
63903;BME280;50072;50.678;13.938;2022-11-15T04:49:47;99589.69;;;6.43;100.00
63903;BME280;50072;50.678;13.938;2022-11-15T04:52:19;99588.75;;;6.49;100.00
63903;BME280;50072;50.678;13.938;2022-11-15T04:54:50;99587.75;;;6.59;100.00
63903;BME280;50072;50.678;13.938;2022-11-15T04:57:18;99587.81;;;6.53;100.00
63903;BME280;50072;50.678;13.938;2022-11-15T04:59:49;99580.72;;;6.52;100.00
63903;BME280;50072;50.678;13.938;2022-11-15T05:02:15;99575.38;;;6.55;100.00
63903;BME280;50072;50.678;13.938;2022-11-15T05:04:41;99573.59;;;6.54;100.00
63903;BME280;50072;50.678;13.938;2022-11-15T05:07:07;99570.91;;;6.60;100.00
63903;BME280;50072;50.678;13.938;2022-11-15T05:09:35;99570.03;;;6.58;100.00
63903;BME280;50072;50.678;13.938;2022-11-15T05:12:01;99570.94;;;6.55;100.00
63903;BME280;50072;50.678;13.938;2022-11-15T05:14:27;99565.53;;;6.65;100.00
63903;BME280;50072;50.678;13.938;2022-11-15T05:16:52;99566.41;;;6.64;100.00
63903;BME280;50072;50.678;13.938;2022-11-15T05:19:19;99569.03;;;6.67;100.00
63903;BME280;50072;50.678;13.938;2022-11-15T05:21:45;99559.31;;;6.67;100.00
63903;BME280;50072;50.678;13.938;2022-11-15T05:24:11;99558.41;;;6.68;100.00
63903;BME280;50072;50.678;13.938;2022-11-15T05:26:36;99549.59;;;6.62;100.00
63903;BME280;50072;50.678;13.938;2022-11-15T05:29:03;99553.97;;;6.67;100.00
63903;BME280;50072;50.678;13.938;2022-11-15T05:31:30;99548.59;;;6.73;100.00
63903;BME280;50072;50.678;13.938;2022-11-15T05:33:59;99550.38;;;6.73;100.00
63903;BME280;50072;50.678;13.938;2022-11-15T05:36:42;99545.94;;;6.72;100.00
63903;BME280;50072;50.678;13.938;2022-11-15T05:39:10;99549.56;;;6.66;100.00
63903;BME280;50072;50.678;13.938;2022-11-15T05:41:39;99553.91;;;6.73;100.00
63903;BME280;50072;50.678;13.938;2022-11-15T05:44:10;99554.72;;;6.80;100.00
63903;BME280;50072;50.678;13.938;2022-11-15T05:46:39;99554.78;;;6.76;100.00
63903;BME280;50072;50.678;13.938;2022-11-15T05:49:20;99557.41;;;6.79;100.00
63903;BME280;50072;50.678;13.938;2022-11-15T05:51:48;99564.44;;;6.84;100.00
63903;BME280;50072;50.678;13.938;2022-11-15T05:54:19;99560.09;;;6.74;100.00
63903;BME280;50072;50.678;13.938;2022-11-15T05:56:47;99563.63;;;6.76;100.00
63903;BME280;50072;50.678;13.938;2022-11-15T05:59:14;99564.53;;;6.73;100.00
63903;BME280;50072;50.678;13.938;2022-11-15T06:01:41;99571.81;;;6.56;100.00
63903;BME280;50072;50.678;13.938;2022-11-15T06:04:08;99566.50;;;6.56;100.00
63903;BME280;50072;50.678;13.938;2022-11-15T06:06:35;99569.22;;;6.51;100.00
63903;BME280;50072;50.678;13.938;2022-11-15T06:09:01;99568.28;;;6.54;100.00
63903;BME280;50072;50.678;13.938;2022-11-15T06:11:26;99566.56;;;6.50;100.00
63903;BME280;50072;50.678;13.938;2022-11-15T06:13:53;99566.66;;;6.41;100.00
63903;BME280;50072;50.678;13.938;2022-11-15T06:16:20;99563.13;;;6.42;100.00
63903;BME280;50072;50.678;13.938;2022-11-15T06:18:46;99558.63;;;6.45;100.00
63903;BME280;50072;50.678;13.938;2022-11-15T06:21:12;99568.34;;;6.48;100.00
63903;BME280;50072;50.678;13.938;2022-11-15T06:23:39;99564.97;;;6.32;100.00
63903;BME280;50072;50.678;13.938;2022-11-15T06:26:05;99564.88;;;6.41;100.00
63903;BME280;50072;50.678;13.938;2022-11-15T06:28:32;99566.81;;;6.25;100.00
63903;BME280;50072;50.678;13.938;2022-11-15T06:31:06;99563.25;;;6.26;100.00
63903;BME280;50072;50.678;13.938;2022-11-15T06:33:33;99563.16;;;6.38;100.00
63903;BME280;50072;50.678;13.938;2022-11-15T06:36:10;99563.19;;;6.32;100.00
63903;BME280;50072;50.678;13.938;2022-11-15T06:38:40;99557.84;;;6.35;100.00
63903;BME280;50072;50.678;13.938;2022-11-15T06:41:11;99569.34;;;6.37;100.00
63903;BME280;50072;50.678;13.938;2022-11-15T06:43:40;99572.03;;;6.34;100.00
63903;BME280;50072;50.678;13.938;2022-11-15T06:46:07;99569.38;;;6.36;100.00
63903;BME280;50072;50.678;13.938;2022-11-15T06:48:34;99572.81;;;6.43;100.00
63903;BME280;50072;50.678;13.938;2022-11-15T06:51:01;99576.47;;;6.34;100.00
63903;BME280;50072;50.678;13.938;2022-11-15T06:53:29;99574.69;;;6.36;100.00
63903;BME280;50072;50.678;13.938;2022-11-15T06:56:01;99570.19;;;6.41;100.00
63903;BME280;50072;50.678;13.938;2022-11-15T06:58:28;99568.44;;;6.42;100.00
63903;BME280;50072;50.678;13.938;2022-11-15T07:01:17;99578.19;;;6.38;100.00
63903;BME280;50072;50.678;13.938;2022-11-15T07:03:44;99573.78;;;6.35;100.00
63903;BME280;50072;50.678;13.938;2022-11-15T07:06:17;99576.44;;;6.37;100.00
63903;BME280;50072;50.678;13.938;2022-11-15T07:08:50;99574.59;;;6.45;100.00
63903;BME280;50072;50.678;13.938;2022-11-15T07:11:17;99578.06;;;6.53;100.00
63903;BME280;50072;50.678;13.938;2022-11-15T07:13:49;99579.03;;;6.45;100.00
63903;BME280;50072;50.678;13.938;2022-11-15T07:16:17;99573.78;;;6.38;100.00
63903;BME280;50072;50.678;13.938;2022-11-15T07:18:45;99579.16;;;6.29;100.00
63903;BME280;50072;50.678;13.938;2022-11-15T07:21:17;99572.03;;;6.31;100.00
63903;BME280;50072;50.678;13.938;2022-11-15T07:23:48;99588.03;;;6.28;100.00
63903;BME280;50072;50.678;13.938;2022-11-15T07:26:15;99588.81;;;6.38;100.00
63903;BME280;50072;50.678;13.938;2022-11-15T07:28:47;99587.19;;;6.26;100.00
63903;BME280;50072;50.678;13.938;2022-11-15T07:31:19;99596.09;;;6.19;100.00
63903;BME280;50072;50.678;13.938;2022-11-15T07:33:45;99596.06;;;6.22;100.00
63903;BME280;50072;50.678;13.938;2022-11-15T07:36:18;99595.09;;;6.32;100.00
63903;BME280;50072;50.678;13.938;2022-11-15T07:38:49;99588.00;;;6.31;100.00
63903;BME280;50072;50.678;13.938;2022-11-15T07:41:16;99588.94;;;6.27;100.00
63903;BME280;50072;50.678;13.938;2022-11-15T07:43:43;99589.72;;;6.38;100.00
63903;BME280;50072;50.678;13.938;2022-11-15T07:46:15;99587.94;;;6.39;100.00
63903;BME280;50072;50.678;13.938;2022-11-15T07:48:47;99595.00;;;6.42;100.00
63903;BME280;50072;50.678;13.938;2022-11-15T07:51:17;99594.06;;;6.47;100.00
63903;BME280;50072;50.678;13.938;2022-11-15T07:53:47;99593.16;;;6.51;100.00
63903;BME280;50072;50.678;13.938;2022-11-15T07:56:15;99589.47;;;6.63;100.00
63903;BME280;50072;50.678;13.938;2022-11-15T07:58:47;99587.72;;;6.62;100.00
63903;BME280;50072;50.678;13.938;2022-11-15T08:01:17;99592.19;;;6.60;99.87
63903;BME280;50072;50.678;13.938;2022-11-15T08:03:46;99588.50;;;6.72;99.29
63903;BME280;50072;50.678;13.938;2022-11-15T08:06:17;99590.25;;;6.74;98.76
63903;BME280;50072;50.678;13.938;2022-11-15T08:08:49;99596.41;;;6.77;98.50
63903;BME280;50072;50.678;13.938;2022-11-15T08:11:17;99586.69;;;6.76;98.54
63903;BME280;50072;50.678;13.938;2022-11-15T08:13:48;99589.34;;;6.76;98.30
63903;BME280;50072;50.678;13.938;2022-11-15T08:16:17;99586.63;;;6.82;97.88
63903;BME280;50072;50.678;13.938;2022-11-15T08:18:44;99583.97;;;6.82;98.27
63903;BME280;50072;50.678;13.938;2022-11-15T08:21:20;99585.94;;;6.63;97.53
63903;BME280;50072;50.678;13.938;2022-11-15T08:23:48;99584.16;;;6.63;98.29
63903;BME280;50072;50.678;13.938;2022-11-15T08:26:15;99583.13;;;6.75;98.49
63903;BME280;50072;50.678;13.938;2022-11-15T08:28:47;99582.19;;;6.81;97.44
63903;BME280;50072;50.678;13.938;2022-11-15T08:31:19;99585.81;;;6.73;97.59
63903;BME280;50072;50.678;13.938;2022-11-15T08:33:47;99576.13;;;6.68;98.05
63903;BME280;50072;50.678;13.938;2022-11-15T08:36:19;99570.03;;;6.56;98.56
63903;BME280;50072;50.678;13.938;2022-11-15T08:38:47;99563.78;;;6.61;98.86
63903;BME280;50072;50.678;13.938;2022-11-15T08:41:28;99570.94;;;6.54;99.29
63903;BME280;50072;50.678;13.938;2022-11-15T08:46:47;99564.78;;;6.52;99.17
63903;BME280;50072;50.678;13.938;2022-11-15T08:49:17;99561.22;;;6.50;99.54
63903;BME280;50072;50.678;13.938;2022-11-15T08:51:50;99556.03;;;6.41;99.92
63903;BME280;50072;50.678;13.938;2022-11-15T08:54:16;99555.09;;;6.46;100.00
63903;BME280;50072;50.678;13.938;2022-11-15T08:56:41;99561.22;;;6.50;99.54
63903;BME280;50072;50.678;13.938;2022-11-15T08:59:07;99552.25;;;6.63;98.71
63903;BME280;50072;50.678;13.938;2022-11-15T09:01:33;99555.88;;;6.56;99.38
63903;BME280;50072;50.678;13.938;2022-11-15T09:03:59;99558.66;;;6.42;99.84
63903;BME280;50072;50.678;13.938;2022-11-15T09:06:24;99558.69;;;6.39;100.00
63903;BME280;50072;50.678;13.938;2022-11-15T09:08:50;99557.09;;;6.21;100.00
63903;BME280;50072;50.678;13.938;2022-11-15T09:11:16;99560.59;;;6.26;100.00
63903;BME280;50072;50.678;13.938;2022-11-15T09:13:45;99571.97;;;6.41;100.00
63903;BME280;50072;50.678;13.938;2022-11-15T09:16:11;99559.59;;;6.38;100.00
63903;BME280;50072;50.678;13.938;2022-11-15T09:18:38;99563.94;;;6.47;100.00
63903;BME280;50072;50.678;13.938;2022-11-15T09:21:04;99553.28;;;6.51;100.00
63903;BME280;50072;50.678;13.938;2022-11-15T09:23:30;99555.88;;;6.56;100.00
63903;BME280;50072;50.678;13.938;2022-11-15T09:26:03;99567.41;;;6.53;100.00
63903;BME280;50072;50.678;13.938;2022-11-15T09:28:32;99564.69;;;6.58;100.00
63903;BME280;50072;50.678;13.938;2022-11-15T09:30:59;99556.91;;;6.41;100.00
63903;BME280;50072;50.678;13.938;2022-11-15T09:33:26;99551.56;;;6.46;100.00
63903;BME280;50072;50.678;13.938;2022-11-15T09:35:52;99548.91;;;6.46;100.00
63903;BME280;50072;50.678;13.938;2022-11-15T09:38:19;99545.41;;;6.41;100.00
63903;BME280;50072;50.678;13.938;2022-11-15T09:40:49;99540.81;;;6.53;100.00
63903;BME280;50072;50.678;13.938;2022-11-15T09:48:59;99538.16;;;6.55;100.00
63903;BME280;50072;50.678;13.938;2022-11-15T09:51:32;99538.06;;;6.61;100.00
63903;BME280;50072;50.678;13.938;2022-11-15T09:54:10;99529.16;;;6.68;100.00
63903;BME280;50072;50.678;13.938;2022-11-15T09:56:41;99525.44;;;6.82;100.00
63903;BME280;50072;50.678;13.938;2022-11-15T10:04:41;99518.06;;;7.02;99.57
63903;BME280;50072;50.678;13.938;2022-11-15T10:12:09;99511.53;;;7.26;97.95
63903;BME280;50072;50.678;13.938;2022-11-15T10:14:38;99509.81;;;7.24;97.68
63903;BME280;50072;50.678;13.938;2022-11-15T10:24:40;99499.09;;;7.29;96.61
63903;BME280;50072;50.678;13.938;2022-11-15T10:27:17;99498.09;;;7.36;96.74
63903;BME280;50072;50.678;13.938;2022-11-15T10:29:49;99492.69;;;7.42;95.30
63903;BME280;50072;50.678;13.938;2022-11-15T10:32:17;99494.53;;;7.38;94.86
63903;BME280;50072;50.678;13.938;2022-11-15T10:34:44;99479.31;;;7.48;94.92
63903;BME280;50072;50.678;13.938;2022-11-15T10:37:11;99465.06;;;7.49;94.94
63903;BME280;50072;50.678;13.938;2022-11-15T10:39:37;99470.97;;;7.68;93.94
63903;BME280;50072;50.678;13.938;2022-11-15T10:42:25;99474.91;;;7.46;93.45
63903;BME280;50072;50.678;13.938;2022-11-15T10:44:51;99472.94;;;7.57;93.31
63903;BME280;50072;50.678;13.938;2022-11-15T10:47:31;99463.41;;;7.42;93.71
63903;BME280;50072;50.678;13.938;2022-11-15T10:50:25;99468.63;;;7.47;93.31
63903;BME280;50072;50.678;13.938;2022-11-15T10:52:50;99460.81;;;7.37;93.69
63903;BME280;50072;50.678;13.938;2022-11-15T10:57:49;99458.06;;;7.42;95.42
63903;BME280;50072;50.678;13.938;2022-11-15T11:00:36;99454.69;;;7.31;94.70
63903;BME280;50072;50.678;13.938;2022-11-15T11:06:23;99453.72;;;7.36;95.16
63903;BME280;50072;50.678;13.938;2022-11-15T11:08:55;99446.59;;;7.38;94.75
63903;BME280;50072;50.678;13.938;2022-11-15T11:11:23;99448.41;;;7.36;94.90
63903;BME280;50072;50.678;13.938;2022-11-15T11:13:49;99440.31;;;7.41;93.97
63903;BME280;50072;50.678;13.938;2022-11-15T11:19:01;99439.28;;;7.53;93.87
63903;BME280;50072;50.678;13.938;2022-11-15T11:21:38;99442.03;;;7.48;93.22
63903;BME280;50072;50.678;13.938;2022-11-15T11:24:23;99438.41;;;7.51;93.95
63903;BME280;50072;50.678;13.938;2022-11-15T11:27:07;99432.28;;;7.46;94.14
63903;BME280;50072;50.678;13.938;2022-11-15T11:33:02;99421.44;;;7.56;93.97
63903;BME280;50072;50.678;13.938;2022-11-15T11:35:59;99419.69;;;7.54;93.93
63903;BME280;50072;50.678;13.938;2022-11-15T11:41:21;99410.44;;;7.76;92.55
63903;BME280;50072;50.678;13.938;2022-11-15T11:43:59;99407.94;;;7.69;93.31
63903;BME280;50072;50.678;13.938;2022-11-15T11:46:49;99399.09;;;7.65;93.06
63903;BME280;50072;50.678;13.938;2022-11-15T11:49:43;99398.13;;;7.69;92.77
63903;BME280;50072;50.678;13.938;2022-11-15T11:52:23;99391.03;;;7.70;92.82
63903;BME280;50072;50.678;13.938;2022-11-15T11:55:12;99398.75;;;7.84;91.91
63903;BME280;50072;50.678;13.938;2022-11-15T11:57:46;99386.75;;;7.61;92.06
63903;BME280;50072;50.678;13.938;2022-11-15T12:00:26;99381.25;;;7.70;91.80
63903;BME280;50072;50.678;13.938;2022-11-15T12:05:32;99376.78;;;7.71;92.61
63903;BME280;50072;50.678;13.938;2022-11-15T12:10:54;99381.41;;;7.63;91.98
63903;BME280;50072;50.678;13.938;2022-11-15T12:13:25;99386.00;;;7.53;91.74
63903;BME280;50072;50.678;13.938;2022-11-15T12:16:05;99372.19;;;7.29;93.28
63903;BME280;50072;50.678;13.938;2022-11-15T12:18:32;99362.81;;;7.05;93.84
63903;BME280;50072;50.678;13.938;2022-11-15T12:21:34;99364.66;;;7.01;94.48
63903;BME280;50072;50.678;13.938;2022-11-15T12:23:58;99361.38;;;6.82;94.58
63903;BME280;50072;50.678;13.938;2022-11-15T12:26:31;99360.63;;;6.76;94.91
63903;BME280;50072;50.678;13.938;2022-11-15T12:29:04;99360.63;;;6.72;94.67
63903;BME280;50072;50.678;13.938;2022-11-15T12:34:02;99350.19;;;6.60;95.65
63903;BME280;50072;50.678;13.938;2022-11-15T12:36:37;99344.84;;;6.62;95.53
63903;BME280;50072;50.678;13.938;2022-11-15T12:39:08;99341.41;;;6.55;95.99
63903;BME280;50072;50.678;13.938;2022-11-15T12:41:44;99339.88;;;6.35;96.57
63903;BME280;50072;50.678;13.938;2022-11-15T12:44:13;99341.78;;;6.27;96.59
63903;BME280;50072;50.678;13.938;2022-11-15T12:52:05;99332.75;;;6.41;96.31
63903;BME280;50072;50.678;13.938;2022-11-15T12:59:56;99318.56;;;6.42;96.65
63903;BME280;50072;50.678;13.938;2022-11-15T13:02:32;99318.56;;;6.42;96.79
63903;BME280;50072;50.678;13.938;2022-11-15T13:05:50;99313.09;;;6.51;96.03
63903;BME280;50072;50.678;13.938;2022-11-15T13:08:09;99311.38;;;6.47;96.28
63903;BME280;50072;50.678;13.938;2022-11-15T13:10:35;99305.25;;;6.42;95.83
63903;BME280;50072;50.678;13.938;2022-11-15T13:13:04;99308.09;;;6.29;95.88
63903;BME280;50072;50.678;13.938;2022-11-15T13:17:56;99310.97;;;6.12;96.91
63903;BME280;50072;50.678;13.938;2022-11-15T13:20:25;99308.31;;;6.11;97.59
63903;BME280;50072;50.678;13.938;2022-11-15T13:27:50;99306.44;;;6.20;97.12
63903;BME280;50072;50.678;13.938;2022-11-15T13:30:22;99309.16;;;6.13;97.19
63903;BME280;50072;50.678;13.938;2022-11-15T13:32:48;99304.81;;;6.09;97.67
63903;BME280;50072;50.678;13.938;2022-11-15T13:35:23;99308.38;;;6.08;97.89
63903;BME280;50072;50.678;13.938;2022-11-15T13:37:52;99302.13;;;6.12;97.72
63903;BME280;50072;50.678;13.938;2022-11-15T13:40:34;99307.28;;;6.21;97.32
63903;BME280;50072;50.678;13.938;2022-11-15T13:46:12;99301.41;;;5.97;97.78
63903;BME280;50072;50.678;13.938;2022-11-15T13:48:41;99308.44;;;6.01;98.11
63903;BME280;50072;50.678;13.938;2022-11-15T13:51:26;99297.97;;;5.87;98.20
63903;BME280;50072;50.678;13.938;2022-11-15T13:57:35;99286.41;;;5.92;98.60
63903;BME280;50072;50.678;13.938;2022-11-15T14:00:05;99280.13;;;6.00;98.39
63903;BME280;50072;50.678;13.938;2022-11-15T14:02:34;99285.53;;;5.88;98.64
63903;BME280;50072;50.678;13.938;2022-11-15T14:05:18;99287.34;;;5.86;99.10
63903;BME280;50072;50.678;13.938;2022-11-15T14:10:31;99281.19;;;5.82;99.13
63903;BME280;50072;50.678;13.938;2022-11-15T14:12:57;99279.44;;;5.80;99.64
63903;BME280;50072;50.678;13.938;2022-11-15T14:15:35;99269.66;;;5.85;99.73
63903;BME280;50072;50.678;13.938;2022-11-15T14:18:02;99260.91;;;5.77;99.81
63903;BME280;50072;50.678;13.938;2022-11-15T14:20:37;99256.47;;;5.76;100.00
63903;BME280;50072;50.678;13.938;2022-11-15T14:25:53;99264.44;;;5.79;100.00
63903;BME280;50072;50.678;13.938;2022-11-15T14:30:49;99259.03;;;5.85;99.74
63903;BME280;50072;50.678;13.938;2022-11-15T14:35:49;99269.78;;;5.73;99.58
63903;BME280;50072;50.678;13.938;2022-11-15T14:38:15;99264.66;;;5.60;99.97
63903;BME280;50072;50.678;13.938;2022-11-15T14:40:43;99252.25;;;5.59;100.00
63903;BME280;50072;50.678;13.938;2022-11-15T14:43:10;99263.69;;;5.63;100.00
63903;BME280;50072;50.678;13.938;2022-11-15T14:45:37;99256.69;;;5.60;100.00
63903;BME280;50072;50.678;13.938;2022-11-15T14:48:05;99255.75;;;5.61;100.00
63903;BME280;50072;50.678;13.938;2022-11-15T14:50:32;99246.88;;;5.65;100.00
63903;BME280;50072;50.678;13.938;2022-11-15T14:52:59;99242.56;;;5.55;100.00
63903;BME280;50072;50.678;13.938;2022-11-15T14:55:33;99237.16;;;5.64;100.00
63903;BME280;50072;50.678;13.938;2022-11-15T14:58:06;99233.69;;;5.58;100.00
63903;BME280;50072;50.678;13.938;2022-11-15T15:00:37;99239.97;;;5.50;100.00
63903;BME280;50072;50.678;13.938;2022-11-15T15:03:04;99239.09;;;5.48;100.00
63903;BME280;50072;50.678;13.938;2022-11-15T15:07:58;99240.94;;;5.43;100.00
63903;BME280;50072;50.678;13.938;2022-11-15T15:10:26;99234.94;;;5.27;100.00
63903;BME280;50072;50.678;13.938;2022-11-15T15:12:53;99229.63;;;5.27;100.00